Chenzhou, China
Current Conditions -  °F | °C
As of 10:00 PM on Wednesday 22 Oct 2014 (Local Time) from ZGHA Reporting Station
Haze Haze  
Wind Chill: 64°   Ceiling: Unl
Heat Index: 64°   Visibility: 3mi
Dew Point: 55°   Wind: 4mph
Humidity: 73%   Direction: 60°ENE
Pressure: 30.15"   Gusts: NA
Location:  25.8°N, 113.03°E
Report Text: ZGHA 221400Z 06002MPS 5000 BR NSC 18/13 Q1021 NOSIG
Loading
Personal Weather Stations






























Interactive Weather Map
Tropical Storm Tracking
New forecast layout! Learn more

10-Day Weather Forecast

Advertisements
Track Severe Weather on mobile